createdAt,value
2017-11-17T00:00:00.595Z,24.77
2017-11-17T00:02:28.923Z,25.63
2017-11-17T00:04:58.015Z,23.97
2017-11-17T00:07:27.080Z,27.93
2017-11-17T00:09:55.373Z,25.67
2017-11-17T00:12:23.699Z,25.00
2017-11-17T00:14:51.996Z,27.37
2017-11-17T00:17:21.086Z,26.00
2017-11-17T00:19:49.401Z,26.90
2017-11-17T00:22:18.466Z,25.70
2017-11-17T00:24:46.871Z,25.80
2017-11-17T00:27:15.164Z,27.70
2017-11-17T00:29:43.495Z,24.40
2017-11-17T00:32:11.813Z,25.37
2017-11-17T00:34:40.245Z,24.33
2017-11-17T00:37:08.575Z,27.13
2017-11-17T00:39:36.878Z,28.70
2017-11-17T00:42:05.208Z,25.87
2017-11-17T00:44:33.550Z,26.90
2017-11-17T00:47:01.894Z,29.13
2017-11-17T00:49:30.196Z,25.10
2017-11-17T00:51:59.383Z,24.53
2017-11-17T00:54:27.706Z,23.43
2017-11-17T00:56:56.757Z,27.20
2017-11-17T00:59:25.087Z,22.63
2017-11-17T01:01:54.168Z,28.23
2017-11-17T01:04:23.248Z,23.90
2017-11-17T01:06:51.536Z,22.57
2017-11-17T01:09:19.904Z,21.63
2017-11-17T01:11:48.212Z,23.93
2017-11-17T01:14:16.507Z,22.30
2017-11-17T01:16:45.040Z,20.77
2017-11-17T01:19:13.332Z,20.00
2017-11-17T01:21:41.628Z,21.00
2017-11-17T01:24:09.966Z,20.80
2017-11-17T01:26:38.255Z,20.80
2017-11-17T01:29:06.544Z,19.97
2017-11-17T01:31:34.877Z,22.30
2017-11-17T01:34:03.211Z,20.20
2017-11-17T01:36:31.516Z,22.60
2017-11-17T01:38:59.808Z,21.50
2017-11-17T01:41:28.241Z,20.60
2017-11-17T01:43:56.570Z,20.23
2017-11-17T01:46:24.862Z,23.27
2017-11-17T01:48:53.156Z,24.20
2017-11-17T01:51:21.484Z,22.10
2017-11-17T01:53:49.788Z,25.30
2017-11-17T01:56:18.173Z,22.77
2017-11-17T01:58:46.561Z,22.07
2017-11-17T02:01:14.860Z,22.20
2017-11-17T02:03:43.156Z,21.30
2017-11-17T02:06:11.481Z,23.20
2017-11-17T02:08:39.780Z,20.57
2017-11-17T02:11:08.139Z,23.60
2017-11-17T02:13:37.197Z,21.60
2017-11-17T02:16:05.505Z,22.83
2017-11-17T02:18:33.820Z,24.73
2017-11-17T02:21:03.008Z,20.50
2017-11-17T02:23:32.216Z,21.20
2017-11-17T02:26:00.579Z,20.87
2017-11-17T02:28:28.875Z,20.87
2017-11-17T02:30:57.181Z,21.47
2017-11-17T02:33:25.506Z,20.80
2017-11-17T02:35:54.565Z,20.80
2017-11-17T02:38:22.870Z,21.70
2017-11-17T02:40:51.195Z,20.37
2017-11-17T02:43:20.258Z,20.00
2017-11-17T02:45:48.674Z,18.40
2017-11-17T02:48:17.060Z,19.67
2017-11-17T02:50:45.358Z,19.70
2017-11-17T02:53:13.676Z,17.97
2017-11-17T02:55:41.973Z,15.47
2017-11-17T02:58:10.265Z,16.50
2017-11-17T03:00:38.580Z,17.90
2017-11-17T03:03:06.859Z,16.27
2017-11-17T03:05:35.194Z,15.20
2017-11-17T03:08:03.494Z,17.40
2017-11-17T03:10:32.585Z,17.00
2017-11-17T03:13:00.972Z,14.90
2017-11-17T03:15:29.300Z,14.17
2017-11-17T03:17:57.593Z,13.70
2017-11-17T03:20:25.941Z,14.00
2017-11-17T03:22:54.230Z,13.20
2017-11-17T03:25:22.561Z,13.30
2017-11-17T03:27:50.852Z,14.37
2017-11-17T03:30:19.530Z,13.10
2017-11-17T03:32:48.609Z,15.57
2017-11-17T03:35:16.995Z,12.67
2017-11-17T03:37:45.313Z,13.63
2017-11-17T03:43:14.046Z,13.27
2017-11-17T03:45:43.099Z,11.87
2017-11-17T03:48:11.439Z,12.13
2017-11-17T03:50:39.755Z,13.67
2017-11-17T03:53:08.310Z,14.97
2017-11-17T03:55:36.608Z,13.90
2017-11-17T03:58:04.909Z,13.47
2017-11-17T04:00:33.988Z,12.80
2017-11-17T04:03:02.447Z,13.37
2017-11-17T04:05:30.769Z,13.90
2017-11-17T04:07:59.059Z,11.73
2017-11-17T04:10:27.354Z,13.13
2017-11-17T04:12:55.684Z,13.37
2017-11-17T04:15:23.986Z,12.90
2017-11-17T04:17:52.420Z,12.30
2017-11-17T04:20:20.724Z,11.93
2017-11-17T04:22:49.021Z,13.30
2017-11-17T04:25:18.129Z,14.33
2017-11-17T04:27:47.242Z,14.07
2017-11-17T04:30:16.334Z,15.43
2017-11-17T04:32:44.657Z,13.63
2017-11-17T04:35:12.947Z,12.07
2017-11-17T04:37:41.268Z,14.83
2017-11-17T04:40:09.985Z,15.70
2017-11-17T04:42:38.296Z,12.60
2017-11-17T04:45:06.598Z,13.33
2017-11-17T04:47:35.683Z,15.10
2017-11-17T04:50:03.981Z,14.03
2017-11-17T04:52:32.305Z,13.47
2017-11-17T04:55:00.590Z,12.53
2017-11-17T04:57:29.026Z,14.70
2017-11-17T04:59:57.314Z,14.53
2017-11-17T05:02:25.660Z,13.93
2017-11-17T05:04:53.951Z,13.47
2017-11-17T05:07:22.245Z,15.90
2017-11-17T05:09:50.575Z,15.37
2017-11-17T05:12:18.912Z,15.93
2017-11-17T05:14:47.996Z,16.67
2017-11-17T05:17:16.323Z,15.30
2017-11-17T05:19:44.615Z,13.80
2017-11-17T05:22:12.936Z,15.90
2017-11-17T05:24:41.220Z,16.27
2017-11-17T05:27:09.553Z,15.27
2017-11-17T05:29:38.635Z,16.60
2017-11-17T05:32:06.923Z,17.07
2017-11-17T05:34:35.261Z,14.90
2017-11-17T05:37:03.590Z,16.30
2017-11-17T05:39:31.880Z,15.83
2017-11-17T05:42:00.206Z,18.57
2017-11-17T05:44:29.307Z,18.93
2017-11-17T05:46:58.372Z,17.50
2017-11-17T05:49:26.705Z,20.67
2017-11-17T05:51:55.809Z,20.80
2017-11-17T05:54:24.193Z,18.27
2017-11-17T05:56:52.484Z,18.10
2017-11-17T05:59:20.971Z,15.80
2017-11-17T06:01:49.272Z,18.10
2017-11-17T06:04:17.563Z,18.67
2017-11-17T06:06:45.897Z,19.27
2017-11-17T06:09:14.193Z,20.20
2017-11-17T06:11:42.622Z,20.80
2017-11-17T06:14:10.912Z,19.80
2017-11-17T06:16:39.241Z,20.80
2017-11-17T06:19:07.528Z,19.63
2017-11-17T06:21:35.829Z,19.40
2017-11-17T06:24:04.144Z,20.37
2017-11-17T06:26:32.471Z,18.97
2017-11-17T06:29:00.900Z,19.17
2017-11-17T06:31:29.217Z,18.40
2017-11-17T06:33:57.575Z,18.30
2017-11-17T06:36:25.864Z,17.53
2017-11-17T06:38:54.192Z,20.50
2017-11-17T06:41:22.498Z,18.97
2017-11-17T06:43:50.838Z,21.47
2017-11-17T06:46:19.163Z,18.33
2017-11-17T06:48:47.673Z,18.53
2017-11-17T06:51:15.972Z,19.13
2017-11-17T06:53:44.360Z,17.10
2017-11-17T06:56:12.689Z,18.50
2017-11-17T06:58:41.119Z,18.40
2017-11-17T07:01:09.411Z,20.33
2017-11-17T07:03:37.733Z,18.17
2017-11-17T07:06:06.822Z,17.73
2017-11-17T07:08:35.121Z,21.37
2017-11-17T07:11:03.614Z,15.70
2017-11-17T07:13:32.717Z,16.20
2017-11-17T07:16:01.003Z,16.43
2017-11-17T07:18:29.331Z,16.60
2017-11-17T07:20:57.624Z,15.90
2017-11-17T07:23:25.949Z,16.77
2017-11-17T07:25:54.258Z,14.50
2017-11-17T07:28:22.564Z,14.53
2017-11-17T07:30:51.660Z,15.27
2017-11-17T07:33:19.951Z,14.90
2017-11-17T07:35:48.273Z,10.53
2017-11-17T07:38:16.568Z,12.63
2017-11-17T07:40:44.912Z,12.50
2017-11-17T07:43:13.191Z,10.00
2017-11-17T07:45:41.487Z,11.90
2017-11-17T07:48:09.815Z,10.03
2017-11-17T07:50:38.116Z,10.77
2017-11-17T07:53:06.440Z,10.57
2017-11-17T07:55:34.729Z,10.77
2017-11-17T07:58:03.061Z,9.90
2017-11-17T08:00:32.120Z,9.43
2017-11-17T08:03:00.404Z,10.03
2017-11-17T08:05:28.718Z,9.20
2017-11-17T08:07:57.097Z,8.13
2017-11-17T08:10:25.387Z,7.50
2017-11-17T08:12:53.721Z,9.73
2017-11-17T08:15:22.806Z,7.07
2017-11-17T08:20:49.791Z,6.70
2017-11-17T08:23:18.188Z,7.30
2017-11-17T08:25:46.479Z,6.50
2017-11-17T08:28:14.867Z,6.17
2017-11-17T08:30:43.140Z,6.13
2017-11-17T08:33:11.425Z,6.10
2017-11-17T08:35:39.932Z,5.73
2017-11-17T08:38:08.227Z,6.60
2017-11-17T08:40:36.618Z,5.20
2017-11-17T08:43:04.946Z,5.03
2017-11-17T08:45:33.294Z,4.43
2017-11-17T08:48:01.617Z,6.47
2017-11-17T08:50:30.788Z,4.70
2017-11-17T08:52:59.084Z,3.57
2017-11-17T08:55:27.382Z,5.13
2017-11-17T08:57:55.688Z,3.97
2017-11-17T09:00:24.744Z,2.50
2017-11-17T09:02:53.058Z,3.63
2017-11-17T09:05:21.344Z,2.20
2017-11-17T09:07:49.664Z,2.77
2017-11-17T09:10:18.720Z,3.70
2017-11-17T09:12:47.036Z,2.47
2017-11-17T09:15:15.376Z,5.00
2017-11-17T09:17:43.708Z,2.90
2017-11-17T09:20:12.093Z,2.13
2017-11-17T09:22:40.413Z,3.33
2017-11-17T09:25:09.504Z,2.13
2017-11-17T09:27:37.820Z,2.30
2017-11-17T09:30:06.873Z,3.10
2017-11-17T09:32:35.161Z,1.80
2017-11-17T09:35:03.476Z,2.77
2017-11-17T09:37:33.258Z,1.37
2017-11-17T09:40:01.541Z,1.37
2017-11-17T09:42:29.851Z,1.13
2017-11-17T09:44:58.131Z,2.50
2017-11-17T09:47:26.450Z,1.30
2017-11-17T09:49:54.730Z,2.30
2017-11-17T09:52:23.135Z,2.63
2017-11-17T09:54:51.421Z,1.37
2017-11-17T09:57:19.821Z,3.60
2017-11-17T09:59:48.207Z,1.90
2017-11-17T10:02:16.520Z,2.23
2017-11-17T10:04:45.621Z,1.83
2017-11-17T10:07:13.924Z,2.50
2017-11-17T10:09:42.977Z,3.23
2017-11-17T10:12:11.297Z,2.17
2017-11-17T10:14:39.580Z,2.50
2017-11-17T10:17:07.886Z,2.00
2017-11-17T10:19:36.278Z,1.30
2017-11-17T10:22:04.617Z,1.93
2017-11-17T10:24:32.907Z,1.30
2017-11-17T10:27:01.194Z,1.60
2017-11-17T10:29:29.502Z,1.73
2017-11-17T10:31:58.764Z,2.60
2017-11-17T10:34:27.836Z,2.20
2017-11-17T10:36:56.143Z,2.00
2017-11-17T10:39:25.197Z,1.70
2017-11-17T10:41:53.516Z,3.40
2017-11-17T10:44:21.823Z,1.40
2017-11-17T10:46:50.223Z,1.50
2017-11-17T10:49:18.529Z,1.73
2017-11-17T10:51:47.560Z,1.20
2017-11-17T10:54:15.876Z,2.60
2017-11-17T10:56:44.158Z,1.70
2017-11-17T10:59:18.488Z,1.67
2017-11-17T11:01:46.904Z,3.10
2017-11-17T11:04:15.296Z,1.60
2017-11-17T11:06:43.572Z,2.00
2017-11-17T11:09:11.885Z,1.50
2017-11-17T11:11:45.869Z,1.83
2017-11-17T11:14:14.148Z,2.77
2017-11-17T11:16:42.463Z,1.00
2017-11-17T11:19:10.852Z,1.30
2017-11-17T11:21:39.167Z,1.50
2017-11-17T11:24:07.516Z,2.40
2017-11-17T11:26:35.832Z,0.80
2017-11-17T11:29:04.112Z,2.13
2017-11-17T11:31:32.416Z,1.97
2017-11-17T11:34:00.788Z,1.50
2017-11-17T11:36:29.194Z,1.17
2017-11-17T11:38:57.487Z,1.50
2017-11-17T11:41:25.804Z,1.43
2017-11-17T11:43:54.897Z,1.40
2017-11-17T11:46:23.994Z,2.77
2017-11-17T11:48:52.297Z,2.47
2017-11-17T11:51:21.388Z,1.43
2017-11-17T11:53:49.679Z,1.87
2017-11-17T11:56:18.153Z,1.50
2017-11-17T11:58:46.428Z,1.27
2017-11-17T12:01:14.718Z,2.03
2017-11-17T12:03:43.115Z,2.80
2017-11-17T12:06:11.392Z,1.23
2017-11-17T12:08:39.668Z,1.63
2017-11-17T12:11:07.991Z,1.57
2017-11-17T12:13:36.301Z,2.20
2017-11-17T12:16:04.681Z,1.80
2017-11-17T12:18:33.088Z,1.73
2017-11-17T12:21:01.365Z,1.87
2017-11-17T12:23:29.847Z,2.40
2017-11-17T12:25:58.245Z,1.33
2017-11-17T12:28:26.636Z,1.20
2017-11-17T12:30:54.957Z,1.43
2017-11-17T12:33:24.012Z,2.20
2017-11-17T12:35:52.324Z,1.20
2017-11-17T12:38:20.640Z,1.07
2017-11-17T12:40:49.695Z,1.20
2017-11-17T12:43:18.117Z,1.57
2017-11-17T12:45:46.411Z,1.43
2017-11-17T12:48:14.793Z,1.47
2017-11-17T12:50:43.101Z,1.50
2017-11-17T12:53:12.184Z,2.03
2017-11-17T12:55:40.473Z,1.77
2017-11-17T12:58:08.792Z,1.10
2017-11-17T13:00:37.881Z,1.93
2017-11-17T13:03:06.188Z,1.10
2017-11-17T13:05:35.242Z,1.87
2017-11-17T13:08:03.567Z,1.10
2017-11-17T13:10:31.848Z,1.30
2017-11-17T13:13:00.152Z,1.50
2017-11-17T13:15:28.442Z,1.07
2017-11-17T13:17:56.828Z,1.30
2017-11-17T13:20:25.161Z,2.17
2017-11-17T13:22:53.444Z,1.23
2017-11-17T13:25:21.784Z,1.33
2017-11-17T13:27:51.014Z,1.20
2017-11-17T13:30:19.302Z,1.10
2017-11-17T13:32:47.678Z,1.93
2017-11-17T13:35:15.961Z,1.20
2017-11-17T13:37:44.273Z,1.17
2017-11-17T13:40:13.364Z,1.53
2017-11-17T13:42:41.653Z,0.83
2017-11-17T13:45:10.053Z,2.07
2017-11-17T13:47:39.855Z,1.17
2017-11-17T13:50:08.149Z,1.27
2017-11-17T13:52:36.457Z,1.87
2017-11-17T13:55:04.750Z,1.13
2017-11-17T13:57:33.064Z,1.10
2017-11-17T14:00:01.425Z,1.60
2017-11-17T14:02:29.712Z,1.43
2017-11-17T14:04:58.025Z,1.40
2017-11-17T14:07:27.093Z,1.17
2017-11-17T14:09:55.364Z,1.70
2017-11-17T14:12:23.715Z,1.20
2017-11-17T14:14:52.767Z,2.00
2017-11-17T14:17:21.048Z,1.90
2017-11-17T14:19:49.367Z,1.80
2017-11-17T14:22:17.850Z,2.30
2017-11-17T14:24:46.181Z,1.87
2017-11-17T14:27:15.232Z,2.07
2017-11-17T14:29:43.557Z,2.30
2017-11-17T14:32:13.409Z,1.17
2017-11-17T14:34:42.481Z,1.30
2017-11-17T14:37:10.878Z,1.37
2017-11-17T14:39:39.173Z,1.77
2017-11-17T14:42:08.577Z,1.57
2017-11-17T14:44:36.859Z,2.10
2017-11-17T14:47:05.136Z,2.20
2017-11-17T14:49:33.446Z,2.13
2017-11-17T14:52:01.760Z,1.77
2017-11-17T14:54:30.807Z,2.60
2017-11-17T14:56:59.123Z,2.10
2017-11-17T14:59:27.520Z,5.30
2017-11-17T15:01:55.849Z,6.50
2017-11-17T15:04:24.207Z,7.17
2017-11-17T15:06:52.517Z,8.60
2017-11-17T15:09:21.564Z,6.63
2017-11-17T15:11:49.880Z,5.23
2017-11-17T15:14:18.277Z,25.47
2017-11-17T15:16:46.584Z,4.53
2017-11-17T15:19:15.672Z,4.80
2017-11-17T15:21:43.984Z,8.80
2017-11-17T15:24:13.064Z,12.60
2017-11-17T15:26:41.469Z,8.77
2017-11-17T15:29:09.757Z,5.50
2017-11-17T15:31:38.074Z,7.90
2017-11-17T15:34:07.197Z,7.00
2017-11-17T15:36:35.703Z,4.73
2017-11-17T15:39:04.235Z,3.37
2017-11-17T15:41:32.568Z,2.90
2017-11-17T15:44:00.895Z,2.00
2017-11-17T15:46:29.216Z,2.37
2017-11-17T15:48:57.594Z,2.20
2017-11-17T15:51:25.912Z,3.13
2017-11-17T15:53:54.184Z,2.03
2017-11-17T15:56:22.579Z,1.90
2017-11-17T15:58:50.960Z,3.20
2017-11-17T16:01:19.308Z,3.20
2017-11-17T16:03:47.833Z,3.53
2017-11-17T16:06:16.150Z,3.90
2017-11-17T16:08:45.252Z,2.80
2017-11-17T16:11:13.642Z,2.40
2017-11-17T16:13:41.973Z,3.50
2017-11-17T16:16:10.441Z,4.73
2017-11-17T16:18:39.514Z,3.57
2017-11-17T16:21:07.828Z,3.37
2017-11-17T16:23:36.885Z,2.77
2017-11-17T16:26:05.268Z,2.40
2017-11-17T16:28:33.596Z,1.70
2017-11-17T16:31:01.896Z,1.20
2017-11-17T16:33:30.220Z,1.60
2017-11-17T16:35:58.572Z,1.30
2017-11-17T16:38:26.884Z,1.87
2017-11-17T16:40:55.965Z,1.57
2017-11-17T16:43:24.298Z,2.60
2017-11-17T16:45:53.331Z,3.20
2017-11-17T16:48:21.659Z,4.43
2017-11-17T16:50:49.976Z,1.20
2017-11-17T16:53:19.072Z,2.17
2017-11-17T16:55:48.282Z,2.77
2017-11-17T16:58:17.375Z,3.13
2017-11-17T17:00:45.730Z,5.27
2017-11-17T17:03:14.092Z,6.20
2017-11-17T17:05:42.450Z,6.50
2017-11-17T17:08:10.787Z,4.70
2017-11-17T17:10:39.103Z,4.97
2017-11-17T17:15:42.867Z,2.50
2017-11-17T17:18:11.203Z,2.50
2017-11-17T17:20:39.574Z,1.73
2017-11-17T17:23:09.010Z,1.90
2017-11-17T17:25:38.648Z,2.50
2017-11-17T17:28:06.965Z,1.83
2017-11-17T17:30:35.303Z,2.27
2017-11-17T17:33:03.612Z,1.47
2017-11-17T17:35:32.013Z,3.00
2017-11-17T17:38:01.246Z,4.43
2017-11-17T17:40:29.534Z,8.75
2017-11-17T17:42:57.845Z,10.27
2017-11-17T17:45:26.196Z,8.47
2017-11-17T17:47:54.489Z,5.53
2017-11-17T17:50:23.006Z,3.20
2017-11-17T17:52:51.296Z,3.03
2017-11-17T17:55:19.688Z,2.23
2017-11-17T17:57:47.992Z,3.40
2017-11-17T18:00:16.365Z,2.20
2017-11-17T18:02:44.725Z,4.40
2017-11-17T18:05:13.059Z,4.40
2017-11-17T18:07:41.407Z,4.30
2017-11-17T18:10:10.311Z,5.80
2017-11-17T18:12:39.038Z,5.93
2017-11-17T18:15:07.469Z,5.33
2017-11-17T18:17:36.554Z,6.30
2017-11-17T18:20:04.926Z,4.60
2017-11-17T18:22:33.239Z,4.80
2017-11-17T18:25:01.613Z,5.63
2017-11-17T18:27:29.955Z,3.87
2017-11-17T18:29:58.327Z,3.57
2017-11-17T18:32:27.400Z,3.13
2017-11-17T18:34:55.750Z,2.90
2017-11-17T18:37:24.066Z,1.90
2017-11-17T18:39:52.387Z,2.35
2017-11-17T18:42:20.771Z,2.00
2017-11-17T18:44:49.050Z,1.50
2017-11-17T18:47:17.375Z,3.10
2017-11-17T18:49:46.446Z,4.80
2017-11-17T18:52:14.745Z,3.40
2017-11-17T18:54:43.099Z,4.37
2017-11-17T18:57:11.376Z,4.03
2017-11-17T18:59:39.672Z,3.22
2017-11-17T19:02:07.976Z,1.95
2017-11-17T19:04:37.245Z,1.67
2017-11-17T19:07:05.541Z,1.70
2017-11-17T19:09:33.895Z,2.87
2017-11-17T19:12:02.221Z,1.83
2017-11-17T19:14:30.542Z,3.00
2017-11-17T19:16:59.819Z,2.70
2017-11-17T19:19:28.142Z,2.87
2017-11-17T19:21:56.468Z,2.43
2017-11-17T19:24:24.766Z,2.78
2017-11-17T19:26:53.076Z,2.83
2017-11-17T19:29:21.364Z,2.40
2017-11-17T19:31:49.814Z,2.90
2017-11-17T19:34:18.272Z,3.65
2017-11-17T19:36:46.550Z,3.80
2017-11-17T19:39:14.892Z,4.90
2017-11-17T19:41:43.276Z,3.57
2017-11-17T19:44:11.564Z,3.00
2017-11-17T19:46:39.935Z,5.35
2017-11-17T19:49:08.265Z,2.67
2017-11-17T19:51:36.572Z,3.03
2017-11-17T19:54:05.019Z,3.97
2017-11-17T19:56:33.366Z,2.87
2017-11-17T19:59:01.751Z,2.40
2017-11-17T20:01:30.093Z,3.40
2017-11-17T20:03:58.401Z,2.37
2017-11-17T20:06:26.885Z,2.73
2017-11-17T20:08:55.196Z,2.85
2017-11-17T20:11:23.490Z,2.97
2017-11-17T20:13:52.580Z,2.97
2017-11-17T20:16:20.895Z,2.33
2017-11-17T20:18:49.984Z,2.00
2017-11-17T20:21:18.344Z,2.50
2017-11-17T20:23:46.673Z,3.17
2017-11-17T20:26:15.769Z,2.83
2017-11-17T20:28:44.097Z,3.90
2017-11-17T20:31:12.392Z,2.60
2017-11-17T20:33:40.726Z,3.80
2017-11-17T20:36:09.061Z,5.00
2017-11-17T20:38:37.391Z,4.50
2017-11-17T20:41:05.728Z,5.33
2017-11-17T20:43:34.050Z,5.50
2017-11-17T20:46:02.376Z,3.12
2017-11-17T20:48:30.664Z,2.70
2017-11-17T20:50:58.990Z,3.28
2017-11-17T20:53:28.068Z,4.40
2017-11-17T20:55:56.401Z,3.95
2017-11-17T20:58:25.732Z,5.20
2017-11-17T21:00:54.035Z,4.70
2017-11-17T21:03:22.394Z,4.93
2017-11-17T21:05:50.766Z,4.28
2017-11-17T21:08:19.861Z,3.85
2017-11-17T21:10:48.946Z,3.28
2017-11-17T21:13:17.254Z,4.53
2017-11-17T21:15:45.589Z,3.62
2017-11-17T21:18:13.884Z,4.45
2017-11-17T21:20:42.199Z,4.23
2017-11-17T21:23:10.493Z,4.63
2017-11-17T21:25:38.881Z,6.07
2017-11-17T21:28:07.178Z,4.68
2017-11-17T21:30:35.682Z,4.82
2017-11-17T21:33:04.806Z,4.83
2017-11-17T21:35:33.880Z,5.57
2017-11-17T21:38:02.176Z,5.80
2017-11-17T21:40:30.505Z,5.47
2017-11-17T21:42:58.801Z,6.10
2017-11-17T21:45:27.102Z,6.18
2017-11-17T21:47:55.446Z,5.90
2017-11-17T21:50:24.651Z,4.97
2017-11-17T21:52:52.961Z,6.10
2017-11-17T21:55:22.077Z,6.22
2017-11-17T21:57:51.147Z,6.90
2017-11-17T22:00:19.476Z,6.10
2017-11-17T22:02:48.552Z,7.32
2017-11-17T22:05:17.045Z,7.93
2017-11-17T22:07:46.869Z,7.90
2017-11-17T22:10:15.160Z,9.20
2017-11-17T22:12:43.498Z,8.67
2017-11-17T22:15:11.860Z,6.60
2017-11-17T22:17:40.148Z,6.63
2017-11-17T22:20:09.215Z,5.65
2017-11-17T22:22:37.667Z,6.93
2017-11-17T22:25:05.988Z,5.87
2017-11-17T22:27:34.297Z,5.47
2017-11-17T22:30:02.642Z,5.07
2017-11-17T22:32:30.950Z,6.43
2017-11-17T22:34:59.261Z,4.85
2017-11-17T22:37:27.561Z,5.62
2017-11-17T22:39:55.902Z,4.97
2017-11-17T22:42:24.196Z,5.65
2017-11-17T22:44:52.515Z,5.90
2017-11-17T22:47:20.815Z,5.25
2017-11-17T22:49:49.137Z,3.95
2017-11-17T22:52:18.229Z,4.90
2017-11-17T22:54:46.561Z,5.87
2017-11-17T22:57:14.847Z,5.07
2017-11-17T22:59:43.165Z,5.32
2017-11-17T23:02:11.456Z,5.60
2017-11-17T23:04:39.785Z,6.65
2017-11-17T23:07:08.860Z,6.47
2017-11-17T23:09:37.186Z,5.65
2017-11-17T23:12:06.277Z,5.17
2017-11-17T23:14:34.588Z,4.43
2017-11-17T23:17:03.663Z,4.35
2017-11-17T23:19:31.971Z,5.00
2017-11-17T23:22:01.035Z,7.62
2017-11-17T23:24:29.364Z,6.00
2017-11-17T23:26:57.661Z,4.95
2017-11-17T23:29:26.764Z,5.93
2017-11-17T23:31:55.073Z,5.43
2017-11-17T23:34:24.160Z,4.90
2017-11-17T23:36:52.549Z,5.78
2017-11-17T23:39:20.912Z,5.17
2017-11-17T23:41:49.338Z,5.70
2017-11-17T23:44:18.437Z,6.00
2017-11-17T23:46:46.725Z,5.37
2017-11-17T23:49:15.080Z,5.70
2017-11-17T23:51:43.652Z,5.50
2017-11-17T23:54:11.948Z,4.50
2017-11-17T23:56:40.239Z,5.80
2017-11-17T23:59:08.552Z,8.10
